Aérodrome :
LOGIN :

S'inscrire | Disclaimer

   EN    FR    IT 

 










Légende :    VFR   VFR Marginal   IFR   IFR Intensif   IFR Très Intensif
Visi : 
Plafond : 
>= 8 km
>= 3000ft
5 à 8 km
1000 à 3000 ft
1500m à 5 km
500 à 1000 ft
800 à 1500m
200 à 500 ft
< 800m
< 200 ft
Symboles :   Orages  Brouillard  Fortes neiges  Fortes précipitations  Vent > 20 kt
SIGMETs :   Divers  Orages  Givrage  Turbulence  Onde Orograph.  Cendres Volcan.







- Altitude de l'aérodrome : 157 ft
- Code IATA : LIL
- Voir les cartes d'approche


LFQQ - Lille Lesquin

DERNIER METAR :
  • 181800Z AUTO 30006KT CAVOK 04/02 Q1030 NOSIG

METARs EXPIRÉS :
  • 181730Z AUTO 33006KT 9999 FEW029 SCT098 BKN110 05/03 Q1029 NOSIG
  • 181700Z AUTO 34006KT 9999 FEW026 BKN100 BKN220 06/03 Q1029 NOSIG
  • 181630Z AUTO 32006KT 9999 FEW023 BKN110 06/03 Q1029 NOSIG
  • 181600Z AUTO 33007KT 9999 BKN022 BKN110 07/04 Q1029 NOSIG

TAF TAF LFQQ
Valide du 18 à 18h jusqu'au 20 à 00h UTC


181700Z 1818/1924 VRB03KT 9999 SCT020
BECMG 1823/1902 4000 BR
BECMG 1903/1905 0200 FG VV///
BECMG 1910/1913 3000 BR OVC003
PROB30 1913/1917 6000 NSW OVC010
BECMG 1920/1923 0600 FG VV///
ATIS : +33 3 20 16 19 54
Pas de NOTAMs connus pour ce terrain.



MET'MAP, la Météo Aéronautique d'un coup d'oeil ! - Copyright ORBIFLY Décembre 2007 - Disclaimer

ORBIFLY MET'MAP TEAM :

Programmation & Développement : Alexandra Zaïnal
Conception & Développement : Baudouin d'Aumeries
Co-Programmation & Développement : Marc-Olivier Méhu
Soutien technique & logistique : Manuel Goepfert

Contact : metmap@orbifly.com




SOURCES & CREDITS :

   NOAA